createdAt,value
2022-12-20T00:00:52.339Z,5.25
2022-12-20T00:03:20.425Z,5.95
2022-12-20T00:05:48.192Z,6.18
2022-12-20T00:08:15.291Z,3.88
2022-12-20T00:10:44.057Z,4.55
2022-12-20T00:13:12.043Z,3.67
2022-12-20T00:15:38.488Z,4.65
2022-12-20T00:18:05.021Z,6.43
2022-12-20T00:20:31.439Z,5.07
2022-12-20T00:22:57.833Z,5.07
2022-12-20T00:25:24.217Z,5.68
2022-12-20T00:27:51.193Z,4.65
2022-12-20T00:30:18.505Z,4.00
2022-12-20T00:32:45.413Z,5.53
2022-12-20T00:35:13.420Z,5.07
2022-12-20T00:37:39.873Z,4.53
2022-12-20T00:40:07.122Z,5.18
2022-12-20T00:42:33.632Z,7.03
2022-12-20T00:45:00.202Z,5.80
2022-12-20T00:47:26.598Z,3.70
2022-12-20T00:49:53.291Z,5.50
2022-12-20T00:52:19.727Z,5.85
2022-12-20T00:54:46.102Z,4.43
2022-12-20T00:57:12.482Z,4.25
2022-12-20T00:59:38.876Z,4.93
2022-12-20T01:02:05.795Z,4.47
2022-12-20T01:04:32.342Z,6.40
2022-12-20T01:06:58.722Z,5.55
2022-12-20T01:09:25.115Z,4.05
2022-12-20T01:11:51.732Z,5.70
2022-12-20T01:14:18.309Z,4.05
2022-12-20T01:16:46.222Z,4.43
2022-12-20T01:19:16.309Z,6.22
2022-12-20T01:21:45.848Z,4.60
2022-12-20T01:24:18.272Z,3.30
2022-12-20T01:26:45.487Z,7.32
2022-12-20T01:29:14.057Z,4.38
2022-12-20T01:31:42.309Z,5.15
2022-12-20T01:34:10.395Z,4.32
2022-12-20T01:36:40.525Z,5.18
2022-12-20T01:39:15.392Z,6.88
2022-12-20T01:41:43.335Z,6.50
2022-12-20T01:44:18.978Z,4.78
2022-12-20T01:46:47.236Z,4.85
2022-12-20T01:49:27.942Z,5.90
2022-12-20T01:52:03.019Z,4.45
2022-12-20T01:54:35.078Z,4.55
2022-12-20T01:57:11.479Z,4.03
2022-12-20T01:59:41.674Z,5.25
2022-12-20T02:02:12.246Z,4.72
2022-12-20T02:04:39.369Z,5.93
2022-12-20T02:07:07.856Z,5.70
2022-12-20T02:09:35.955Z,4.65
2022-12-20T02:12:11.486Z,4.13
2022-12-20T02:14:52.813Z,6.07
2022-12-20T02:17:40.904Z,4.78
2022-12-20T02:20:45.271Z,5.22
2022-12-20T02:23:49.590Z,5.28
2022-12-20T02:26:42.672Z,5.13
2022-12-20T02:29:48.390Z,4.47
2022-12-20T02:34:52.539Z,3.65
2022-12-20T02:37:19.540Z,5.10
2022-12-20T02:39:46.850Z,4.75
2022-12-20T02:42:18.341Z,5.15
2022-12-20T02:45:11.718Z,4.25
2022-12-20T02:47:53.887Z,8.18
2022-12-20T02:50:45.593Z,5.15
2022-12-20T02:53:13.075Z,5.97
2022-12-20T02:55:50.804Z,4.22
2022-12-20T02:58:43.538Z,3.30
2022-12-20T03:01:16.435Z,5.85
2022-12-20T03:03:43.782Z,5.72
2022-12-20T03:06:10.214Z,6.15
2022-12-20T03:08:36.721Z,6.07
2022-12-20T03:11:03.627Z,5.47
2022-12-20T03:13:31.564Z,6.57
2022-12-20T03:16:06.493Z,8.68
2022-12-20T03:18:33.449Z,4.95
2022-12-20T03:20:59.921Z,6.45
2022-12-20T03:23:26.294Z,7.43
2022-12-20T03:25:52.695Z,7.00
2022-12-20T03:28:30.389Z,5.45
2022-12-20T03:30:57.368Z,6.85
2022-12-20T03:33:24.021Z,5.97
2022-12-20T03:35:50.776Z,4.70
2022-12-20T03:38:18.362Z,4.88
2022-12-20T03:40:45.873Z,5.28
2022-12-20T03:43:16.487Z,5.95
2022-12-20T03:45:43.027Z,4.93
2022-12-20T03:48:09.643Z,4.65
2022-12-20T03:50:37.089Z,6.50
2022-12-20T03:53:04.102Z,4.88
2022-12-20T03:55:32.183Z,5.45
2022-12-20T03:57:59.692Z,6.65
2022-12-20T04:00:30.955Z,6.07
2022-12-20T04:03:14.975Z,4.95
2022-12-20T04:05:41.995Z,6.55
2022-12-20T04:08:08.745Z,6.25
2022-12-20T04:10:55.306Z,7.30
2022-12-20T04:13:23.632Z,6.85
2022-12-20T04:15:54.110Z,9.15
2022-12-20T04:18:26.050Z,5.18
2022-12-20T04:20:53.954Z,7.63
2022-12-20T04:23:25.699Z,9.48
2022-12-20T04:25:52.588Z,7.30
2022-12-20T04:28:18.969Z,6.38
2022-12-20T04:30:45.731Z,6.55
2022-12-20T04:33:17.834Z,9.73
2022-12-20T04:35:44.640Z,8.23
2022-12-20T04:38:11.982Z,7.03
2022-12-20T04:40:38.488Z,5.72
2022-12-20T04:43:07.324Z,8.10
2022-12-20T04:45:34.643Z,5.72
2022-12-20T04:48:21.024Z,7.38
2022-12-20T04:50:49.675Z,7.28
2022-12-20T04:53:34.886Z,8.32
2022-12-20T04:56:01.973Z,8.40
2022-12-20T04:58:29.018Z,6.75
2022-12-20T05:00:55.538Z,9.60
2022-12-20T05:03:26.010Z,5.88
2022-12-20T05:05:53.335Z,8.10
2022-12-20T05:08:20.592Z,6.88
2022-12-20T05:10:50.204Z,7.07
2022-12-20T05:13:17.009Z,6.57
2022-12-20T05:15:45.228Z,8.98
2022-12-20T05:18:12.602Z,7.03
2022-12-20T05:20:48.264Z,8.07
2022-12-20T05:23:33.671Z,7.93
2022-12-20T05:26:18.775Z,8.73
2022-12-20T05:28:46.297Z,7.65
2022-12-20T05:31:12.956Z,7.10
2022-12-20T05:33:39.517Z,8.18
2022-12-20T05:36:07.371Z,8.23
2022-12-20T05:38:33.883Z,8.20
2022-12-20T05:41:04.780Z,7.78
2022-12-20T05:43:32.718Z,8.93
2022-12-20T05:46:00.421Z,9.55
2022-12-20T05:48:35.685Z,10.70
2022-12-20T05:51:05.077Z,8.25
2022-12-20T05:53:33.699Z,6.50
2022-12-20T05:56:03.811Z,7.60
2022-12-20T05:58:33.733Z,9.02
2022-12-20T06:01:02.827Z,8.23
2022-12-20T06:03:32.109Z,7.38
2022-12-20T06:06:00.320Z,8.10
2022-12-20T06:08:29.994Z,8.30
2022-12-20T06:10:58.340Z,8.13
2022-12-20T06:13:25.158Z,8.20
2022-12-20T06:15:53.869Z,8.23
2022-12-20T06:18:21.651Z,7.47
2022-12-20T06:20:51.583Z,8.13
2022-12-20T06:23:21.365Z,9.38
2022-12-20T06:25:58.190Z,8.48
2022-12-20T06:28:29.734Z,7.43
2022-12-20T06:30:57.959Z,7.65
2022-12-20T06:33:44.817Z,5.95
2022-12-20T06:36:13.853Z,8.88
2022-12-20T06:38:40.251Z,8.10
2022-12-20T06:41:06.974Z,7.80
2022-12-20T06:43:33.429Z,8.95
2022-12-20T06:45:59.958Z,6.72
2022-12-20T06:48:26.486Z,6.93
2022-12-20T06:50:56.107Z,8.65
2022-12-20T06:53:24.185Z,7.30
2022-12-20T06:55:51.135Z,6.78
2022-12-20T06:58:19.404Z,7.28
2022-12-20T07:00:48.259Z,6.38
2022-12-20T07:03:15.296Z,9.15
2022-12-20T07:05:41.937Z,7.88
2022-12-20T07:08:08.437Z,6.93
2022-12-20T07:10:36.220Z,7.88
2022-12-20T07:13:02.798Z,8.20
2022-12-20T07:15:29.201Z,7.63
2022-12-20T07:17:55.747Z,5.10
2022-12-20T07:20:22.195Z,5.50
2022-12-20T07:22:48.660Z,7.32
2022-12-20T07:25:15.104Z,7.05
2022-12-20T07:27:41.542Z,6.88
2022-12-20T07:30:08.524Z,6.47
2022-12-20T07:32:34.899Z,6.88
2022-12-20T07:35:01.390Z,6.03
2022-12-20T07:37:30.001Z,7.38
2022-12-20T07:39:56.491Z,5.15
2022-12-20T07:42:23.151Z,5.72
2022-12-20T07:44:50.372Z,6.18
2022-12-20T07:47:16.914Z,5.30
2022-12-20T07:49:43.365Z,7.18
2022-12-20T07:52:14.076Z,6.38
2022-12-20T07:54:45.860Z,4.82
2022-12-20T07:57:17.991Z,6.18
2022-12-20T07:59:49.734Z,8.35
2022-12-20T08:02:21.906Z,6.20
2022-12-20T08:04:50.586Z,7.75
2022-12-20T08:07:17.531Z,6.60
2022-12-20T08:09:45.329Z,6.10
2022-12-20T08:12:15.874Z,8.90
2022-12-20T08:14:42.921Z,6.57
2022-12-20T08:17:09.436Z,6.10
2022-12-20T08:19:35.873Z,8.00
2022-12-20T08:22:03.853Z,6.25
2022-12-20T08:24:30.356Z,6.72
2022-12-20T08:26:57.796Z,5.22
2022-12-20T08:29:24.211Z,5.97
2022-12-20T08:31:51.055Z,4.25
2022-12-20T08:34:18.010Z,6.10
2022-12-20T08:36:44.476Z,6.35
2022-12-20T08:39:11.748Z,4.53
2022-12-20T08:41:38.230Z,5.63
2022-12-20T08:44:05.832Z,7.38
2022-12-20T08:46:32.587Z,6.07
2022-12-20T08:48:59.010Z,4.88
2022-12-20T08:51:25.532Z,5.93
2022-12-20T08:53:52.419Z,6.78
2022-12-20T08:56:19.874Z,6.93
2022-12-20T08:58:46.639Z,6.38
2022-12-20T09:01:15.796Z,5.75
2022-12-20T09:03:42.918Z,6.90
2022-12-20T09:06:18.861Z,7.05
2022-12-20T09:08:45.412Z,6.47
2022-12-20T09:11:14.593Z,6.20
2022-12-20T09:13:44.287Z,5.88
2022-12-20T09:16:13.600Z,5.03
2022-12-20T09:18:40.216Z,6.35
2022-12-20T09:21:08.595Z,6.40
2022-12-20T09:23:35.936Z,7.18
2022-12-20T09:26:05.350Z,7.40
2022-12-20T09:28:32.766Z,7.50
2022-12-20T09:31:04.565Z,6.57
2022-12-20T09:33:32.410Z,9.77
2022-12-20T09:36:00.200Z,6.18
2022-12-20T09:38:28.652Z,7.82
2022-12-20T09:41:03.318Z,7.93
2022-12-20T09:43:30.412Z,5.03
2022-12-20T09:45:59.611Z,7.38
2022-12-20T09:48:30.499Z,5.80
2022-12-20T09:51:34.438Z,5.68
2022-12-20T09:54:33.190Z,7.22
2022-12-20T09:57:23.912Z,7.13
2022-12-20T09:59:50.439Z,7.10
2022-12-20T10:05:48.557Z,5.05
2022-12-20T10:08:25.208Z,6.97
2022-12-20T10:10:56.137Z,11.10
2022-12-20T10:13:46.796Z,9.05
2022-12-20T10:16:22.166Z,8.88
2022-12-20T10:19:04.211Z,8.52
2022-12-20T10:21:37.240Z,6.00
2022-12-20T10:24:10.104Z,5.95
2022-12-20T10:26:36.657Z,8.65
2022-12-20T10:29:03.141Z,5.95
2022-12-20T10:31:29.661Z,7.18
2022-12-20T10:33:56.211Z,6.90
2022-12-20T10:36:29.615Z,5.63
2022-12-20T10:41:33.625Z,7.28
2022-12-20T10:44:03.749Z,6.70
2022-12-20T10:47:00.813Z,4.30
2022-12-20T10:49:28.232Z,12.75
2022-12-20T10:51:56.683Z,6.35
2022-12-20T10:54:29.185Z,5.97
2022-12-20T10:56:58.991Z,7.05
2022-12-20T10:59:37.134Z,6.10
2022-12-20T11:02:38.845Z,6.78
2022-12-20T11:05:09.575Z,6.00
2022-12-20T11:07:37.270Z,6.95
2022-12-20T11:10:20.842Z,6.97
2022-12-20T11:15:34.695Z,8.02
2022-12-20T11:18:10.844Z,11.05
2022-12-20T11:20:57.761Z,6.88
2022-12-20T11:23:41.754Z,6.63
2022-12-20T11:26:49.446Z,6.72
2022-12-20T11:29:40.890Z,8.45
2022-12-20T11:32:48.867Z,8.88
2022-12-20T11:35:25.152Z,9.40
2022-12-20T11:38:10.174Z,5.43
2022-12-20T11:40:50.011Z,10.35
2022-12-20T11:44:24.648Z,6.50
2022-12-20T11:47:21.906Z,6.10
2022-12-20T11:50:03.837Z,5.55
2022-12-20T11:52:43.348Z,8.30
2022-12-20T11:55:12.490Z,5.80
2022-12-20T11:58:17.351Z,8.00
2022-12-20T12:03:19.307Z,7.47
2022-12-20T12:05:50.987Z,6.20
2022-12-20T12:08:31.467Z,5.88
2022-12-20T12:11:32.302Z,7.15
2022-12-20T12:14:03.318Z,5.72
2022-12-20T12:16:35.561Z,6.20
2022-12-20T12:19:02.569Z,6.68
2022-12-20T12:21:39.190Z,6.75
2022-12-20T12:24:26.656Z,8.80
2022-12-20T12:26:53.518Z,5.07
2022-12-20T12:29:21.357Z,9.30
2022-12-20T12:32:14.356Z,10.38
2022-12-20T12:34:44.133Z,6.20
2022-12-20T12:37:24.795Z,8.18
2022-12-20T12:40:03.882Z,5.75
2022-12-20T12:42:58.263Z,7.03
2022-12-20T12:45:29.082Z,6.68
2022-12-20T12:48:19.672Z,4.93
2022-12-20T12:50:49.488Z,7.72
2022-12-20T12:53:21.866Z,5.32
2022-12-20T12:55:51.023Z,6.57
2022-12-20T12:58:23.186Z,6.05
2022-12-20T13:00:56.960Z,7.25
2022-12-20T13:03:42.536Z,6.57
2022-12-20T13:06:30.442Z,5.60
2022-12-20T13:08:59.670Z,5.32
2022-12-20T13:11:32.490Z,5.55
2022-12-20T13:14:14.254Z,6.55
2022-12-20T13:17:10.775Z,5.70
2022-12-20T13:19:28.785Z,6.10
2022-12-20T13:21:57.641Z,4.47
2022-12-20T13:24:50.219Z,4.20
2022-12-20T13:27:29.956Z,7.20
2022-12-20T13:30:02.328Z,4.93
2022-12-20T13:32:47.278Z,4.68
2022-12-20T13:35:25.989Z,4.40
2022-12-20T13:38:02.135Z,6.68
2022-12-20T13:40:57.065Z,7.32
2022-12-20T13:43:23.487Z,4.25
2022-12-20T13:45:57.370Z,8.35
2022-12-20T13:48:47.836Z,7.03
2022-12-20T13:51:25.521Z,6.40
2022-12-20T13:53:56.377Z,5.55
2022-12-20T13:56:44.551Z,8.70
2022-12-20T13:59:26.762Z,6.95
2022-12-20T14:01:57.558Z,7.10
2022-12-20T14:04:26.890Z,6.68
2022-12-20T14:07:02.002Z,6.50
2022-12-20T14:09:33.772Z,6.97
2022-12-20T14:12:32.923Z,7.30
2022-12-20T14:15:03.008Z,7.57
2022-12-20T14:17:33.344Z,8.10
2022-12-20T14:20:24.736Z,6.80
2022-12-20T14:22:55.846Z,7.03
2022-12-20T14:25:37.739Z,8.73
2022-12-20T14:28:04.883Z,7.50
2022-12-20T14:30:43.253Z,6.57
2022-12-20T14:33:37.945Z,6.80
2022-12-20T14:36:22.446Z,5.00
2022-12-20T14:38:51.240Z,4.47
2022-12-20T14:41:38.899Z,6.90
2022-12-20T14:44:20.142Z,6.80
2022-12-20T14:46:52.339Z,5.75
2022-12-20T14:49:32.445Z,6.22
2022-12-20T14:52:15.511Z,6.22
2022-12-20T14:57:37.187Z,9.18
2022-12-20T15:00:18.862Z,6.43
2022-12-20T15:02:51.762Z,9.27
2022-12-20T15:05:33.586Z,8.30
2022-12-20T15:08:19.217Z,7.45
2022-12-20T15:10:53.271Z,6.70
2022-12-20T15:13:22.700Z,7.88
2022-12-20T15:15:49.315Z,7.68
2022-12-20T15:18:18.243Z,8.63
2022-12-20T15:20:47.964Z,7.82
2022-12-20T15:23:16.878Z,8.43
2022-12-20T15:25:44.266Z,8.93
2022-12-20T15:28:14.178Z,7.82
2022-12-20T15:30:40.704Z,7.45
2022-12-20T15:33:08.764Z,5.47
2022-12-20T15:35:35.196Z,10.57
2022-12-20T15:38:01.572Z,7.68
2022-12-20T15:40:28.704Z,6.78
2022-12-20T15:42:55.107Z,7.45
2022-12-20T15:45:22.765Z,7.25
2022-12-20T15:47:49.140Z,8.18
2022-12-20T15:50:15.523Z,10.50
2022-12-20T15:52:42.106Z,8.25
2022-12-20T15:55:11.136Z,11.23
2022-12-20T15:57:37.534Z,8.18
2022-12-20T16:00:04.806Z,9.07
2022-12-20T16:02:40.355Z,11.02
2022-12-20T16:05:11.208Z,9.80
2022-12-20T16:07:37.665Z,12.77
2022-12-20T16:10:04.690Z,12.27
2022-12-20T16:12:35.619Z,10.68
2022-12-20T16:15:02.091Z,9.10
2022-12-20T16:17:28.550Z,11.18
2022-12-20T16:19:55.331Z,12.27
2022-12-20T16:22:23.770Z,9.55
2022-12-20T16:24:50.338Z,12.48
2022-12-20T16:27:17.136Z,8.27
2022-12-20T16:29:43.616Z,16.52
2022-12-20T16:32:15.771Z,9.82
2022-12-20T16:34:42.716Z,12.15
2022-12-20T16:37:09.189Z,12.38
2022-12-20T16:39:35.588Z,11.68
2022-12-20T16:42:01.980Z,12.13
2022-12-20T16:44:28.672Z,13.18
2022-12-20T16:46:55.149Z,15.25
2022-12-20T16:49:21.746Z,12.88
2022-12-20T16:51:49.120Z,11.95
2022-12-20T16:54:20.565Z,12.35
2022-12-20T16:56:50.974Z,15.50
2022-12-20T16:59:20.665Z,12.00
2022-12-20T17:01:49.203Z,14.73
2022-12-20T17:04:17.896Z,8.25
2022-12-20T17:06:45.249Z,9.40
2022-12-20T17:09:11.696Z,9.73
2022-12-20T17:11:39.300Z,10.88
2022-12-20T17:14:10.560Z,16.65
2022-12-20T17:16:39.647Z,14.00
2022-12-20T17:19:06.172Z,12.73
2022-12-20T17:24:26.529Z,10.82
2022-12-20T17:26:53.213Z,11.70
2022-12-20T17:29:20.421Z,11.23
2022-12-20T17:31:47.818Z,11.25
2022-12-20T17:34:18.648Z,8.52
2022-12-20T17:36:46.495Z,10.48
2022-12-20T17:39:13.403Z,10.07
2022-12-20T17:41:42.437Z,10.82
2022-12-20T17:44:20.364Z,8.82
2022-12-20T17:46:47.366Z,13.20
2022-12-20T17:49:14.173Z,10.90
2022-12-20T17:51:40.563Z,11.02
2022-12-20T17:54:13.108Z,8.98
2022-12-20T17:56:39.522Z,12.87
2022-12-20T17:59:05.893Z,12.82
2022-12-20T18:01:34.726Z,11.90
2022-12-20T18:04:06.095Z,11.23
2022-12-20T18:06:34.863Z,9.77
2022-12-20T18:09:01.266Z,11.68
2022-12-20T18:11:28.686Z,12.30
2022-12-20T18:13:57.394Z,14.63
2022-12-20T18:16:29.507Z,14.57
2022-12-20T18:18:56.564Z,16.80
2022-12-20T18:21:25.873Z,12.75
2022-12-20T18:23:53.994Z,13.82
2022-12-20T18:26:31.273Z,11.57
2022-12-20T18:29:00.117Z,10.77
2022-12-20T18:31:29.103Z,9.90
2022-12-20T18:33:58.310Z,10.38
2022-12-20T18:36:27.352Z,9.57
2022-12-20T18:38:53.876Z,10.70
2022-12-20T18:41:25.680Z,10.27
2022-12-20T18:43:53.592Z,10.57
2022-12-20T18:46:21.904Z,10.13
2022-12-20T18:48:52.906Z,9.70
2022-12-20T18:51:26.196Z,11.18
2022-12-20T18:53:55.020Z,12.55
2022-12-20T18:56:25.090Z,12.07
2022-12-20T18:58:51.895Z,14.13
2022-12-20T19:01:24.546Z,11.23
2022-12-20T19:03:52.335Z,8.23
2022-12-20T19:06:19.802Z,17.70
2022-12-20T19:08:47.385Z,16.17
2022-12-20T19:11:16.893Z,13.63
2022-12-20T19:13:44.495Z,20.80
2022-12-20T19:16:14.602Z,13.60
2022-12-20T19:18:42.357Z,10.75
2022-12-20T19:21:12.191Z,10.85
2022-12-20T19:23:40.558Z,16.50
2022-12-20T19:26:09.809Z,15.38
2022-12-20T19:28:36.400Z,14.13
2022-12-20T19:31:21.672Z,13.45
2022-12-20T19:33:50.561Z,11.88
2022-12-20T19:36:28.573Z,14.98
2022-12-20T19:38:59.143Z,11.70
2022-12-20T19:41:28.934Z,14.20
2022-12-20T19:43:56.426Z,13.43
2022-12-20T19:46:28.853Z,12.38
2022-12-20T19:51:23.885Z,16.05
2022-12-20T19:53:51.577Z,15.80
2022-12-20T19:56:20.782Z,16.23
2022-12-20T19:58:47.720Z,15.80
2022-12-20T20:01:15.450Z,14.45
2022-12-20T20:03:41.961Z,15.75
2022-12-20T20:06:08.847Z,14.50
2022-12-20T20:08:35.717Z,15.88
2022-12-20T20:11:09.420Z,20.98
2022-12-20T20:13:37.485Z,18.23
2022-12-20T20:16:04.711Z,12.77
2022-12-20T20:18:36.766Z,13.70
2022-12-20T20:21:13.342Z,14.38
2022-12-20T20:23:40.165Z,16.63
2022-12-20T20:26:10.179Z,19.13
2022-12-20T20:28:43.753Z,14.43
2022-12-20T20:31:16.530Z,17.55
2022-12-20T20:33:44.149Z,18.23
2022-12-20T20:36:14.211Z,16.73
2022-12-20T20:38:40.885Z,15.45
2022-12-20T20:41:07.484Z,11.55
2022-12-20T20:43:36.670Z,10.65
2022-12-20T20:46:09.128Z,17.75
2022-12-20T20:48:35.920Z,15.43
2022-12-20T20:51:02.309Z,13.85
2022-12-20T20:53:33.323Z,10.73
2022-12-20T20:56:01.872Z,15.40
2022-12-20T20:58:28.321Z,15.93
2022-12-20T21:00:59.942Z,14.95
2022-12-20T21:03:27.690Z,17.50
2022-12-20T21:08:41.037Z,14.35
2022-12-20T21:11:08.799Z,17.60
2022-12-20T21:13:36.347Z,21.13
2022-12-20T21:16:16.095Z,15.82
2022-12-20T21:18:42.722Z,17.83
2022-12-20T21:21:11.652Z,19.08
2022-12-20T21:23:39.752Z,21.33
2022-12-20T21:26:07.431Z,21.25
2022-12-20T21:28:33.846Z,20.55
2022-12-20T21:31:02.128Z,28.50
2022-12-20T21:33:28.963Z,32.72
2022-12-20T21:36:03.830Z,22.45
2022-12-20T21:38:30.415Z,24.77
2022-12-20T21:41:08.127Z,27.52
2022-12-20T21:43:34.979Z,21.88
2022-12-20T21:46:01.831Z,24.50
2022-12-20T21:48:30.146Z,24.08
2022-12-20T21:51:05.480Z,28.73
2022-12-20T21:53:32.693Z,22.75
2022-12-20T21:56:00.476Z,23.83
2022-12-20T21:58:29.095Z,20.77
2022-12-20T22:00:56.527Z,31.63
2022-12-20T22:03:24.176Z,21.83
2022-12-20T22:05:52.942Z,22.17
2022-12-20T22:08:20.628Z,33.50
2022-12-20T22:10:47.117Z,25.17
2022-12-20T22:13:13.686Z,25.25
2022-12-20T22:15:40.661Z,21.88
2022-12-20T22:18:07.968Z,27.33
2022-12-20T22:20:35.772Z,33.15
2022-12-20T22:23:02.489Z,31.10
2022-12-20T22:25:28.921Z,29.67
2022-12-20T22:27:55.564Z,27.63
2022-12-20T22:30:21.979Z,28.75
2022-12-20T22:32:48.401Z,27.55
2022-12-20T22:35:22.222Z,29.83
2022-12-20T22:37:49.236Z,24.48
2022-12-20T22:40:15.677Z,33.38
2022-12-20T22:42:42.063Z,28.00
2022-12-20T22:45:09.521Z,29.67
2022-12-20T22:47:36.790Z,34.90
2022-12-20T22:50:04.778Z,43.72
2022-12-20T22:52:32.806Z,33.42
2022-12-20T22:54:59.774Z,34.10
2022-12-20T22:57:27.563Z,27.17
2022-12-20T22:59:54.285Z,30.52
2022-12-20T23:02:20.779Z,24.90
2022-12-20T23:04:47.324Z,19.98
2022-12-20T23:07:13.732Z,21.45
2022-12-20T23:09:40.099Z,19.08
2022-12-20T23:12:25.261Z,19.55
2022-12-20T23:15:06.515Z,19.80
2022-12-20T23:17:33.248Z,17.85
2022-12-20T23:20:18.418Z,20.00
2022-12-20T23:22:44.996Z,21.35
2022-12-20T23:25:14.431Z,20.55
2022-12-20T23:27:42.791Z,19.10
2022-12-20T23:30:11.375Z,17.45
2022-12-20T23:32:38.134Z,17.90
2022-12-20T23:35:11.927Z,20.30
2022-12-20T23:37:39.241Z,17.60
2022-12-20T23:40:08.077Z,21.23
2022-12-20T23:42:34.625Z,19.60
2022-12-20T23:45:01.010Z,20.23
2022-12-20T23:47:27.680Z,20.23
2022-12-20T23:49:54.100Z,19.70
2022-12-20T23:52:20.499Z,17.42
2022-12-20T23:54:47.212Z,16.60
2022-12-20T23:57:13.910Z,17.85
2022-12-20T23:59:40.408Z,16.05
